createdAt,value
2023-04-18T00:01:03.026Z,6.18
2023-04-18T00:03:30.106Z,7.05
2023-04-18T00:05:58.055Z,7.18
2023-04-18T00:08:24.704Z,8.32
2023-04-18T00:10:51.405Z,7.40
2023-04-18T00:13:18.430Z,6.30
2023-04-18T00:15:46.331Z,7.53
2023-04-18T00:18:16.175Z,7.38
2023-04-18T00:20:43.160Z,7.43
2023-04-18T00:23:14.126Z,7.90
2023-04-18T00:25:40.956Z,8.07
2023-04-18T00:28:07.645Z,7.63
2023-04-18T00:30:34.256Z,7.38
2023-04-18T00:33:01.053Z,6.80
2023-04-18T00:35:27.624Z,7.00
2023-04-18T00:37:54.194Z,8.07
2023-04-18T00:40:20.730Z,7.90
2023-04-18T00:42:47.403Z,8.77
2023-04-18T00:45:13.959Z,8.13
2023-04-18T00:47:40.604Z,7.50
2023-04-18T00:50:08.293Z,8.68
2023-04-18T00:52:36.045Z,7.55
2023-04-18T00:55:06.194Z,8.65
2023-04-18T00:57:33.236Z,7.55
2023-04-18T01:00:01.594Z,8.48
2023-04-18T01:02:31.381Z,7.95
2023-04-18T01:04:59.503Z,7.53
2023-04-18T01:07:26.908Z,7.03
2023-04-18T01:09:54.210Z,8.02
2023-04-18T01:12:20.870Z,8.43
2023-04-18T01:14:47.533Z,8.82
2023-04-18T01:17:14.112Z,7.97
2023-04-18T01:19:40.869Z,7.97
2023-04-18T01:22:07.471Z,8.05
2023-04-18T01:24:34.265Z,8.27
2023-04-18T01:27:03.029Z,8.15
2023-04-18T01:29:29.619Z,8.40
2023-04-18T01:31:56.195Z,7.60
2023-04-18T01:34:22.973Z,7.72
2023-04-18T01:36:49.770Z,7.88
2023-04-18T01:39:18.344Z,8.32
2023-04-18T01:41:45.031Z,8.43
2023-04-18T01:44:11.772Z,8.85
2023-04-18T01:46:38.956Z,8.45
2023-04-18T01:49:06.525Z,7.43
2023-04-18T01:51:33.073Z,8.30
2023-04-18T01:53:59.655Z,8.43
2023-04-18T01:56:26.229Z,7.85
2023-04-18T01:58:52.819Z,7.70
2023-04-18T02:01:19.665Z,8.25
2023-04-18T02:03:46.912Z,7.05
2023-04-18T02:06:13.592Z,8.90
2023-04-18T02:08:40.366Z,8.55
2023-04-18T02:11:07.075Z,7.40
2023-04-18T02:13:33.661Z,9.13
2023-04-18T02:16:00.278Z,7.90
2023-04-18T02:18:27.249Z,8.65
2023-04-18T02:20:53.889Z,7.72
2023-04-18T02:23:20.495Z,6.32
2023-04-18T02:25:47.021Z,8.70
2023-04-18T02:28:13.648Z,7.82
2023-04-18T02:30:40.283Z,7.82
2023-04-18T02:33:06.908Z,8.85
2023-04-18T02:35:33.549Z,9.60
2023-04-18T02:38:00.412Z,8.05
2023-04-18T02:40:26.973Z,8.10
2023-04-18T02:42:53.475Z,9.25
2023-04-18T02:45:20.113Z,7.95
2023-04-18T02:47:54.777Z,7.85
2023-04-18T02:50:23.185Z,7.85
2023-04-18T02:52:49.817Z,8.43
2023-04-18T02:55:16.560Z,7.72
2023-04-18T02:57:43.183Z,9.52
2023-04-18T03:00:10.216Z,8.98
2023-04-18T03:02:36.886Z,7.78
2023-04-18T03:05:03.796Z,7.65
2023-04-18T03:07:31.109Z,8.10
2023-04-18T03:09:57.863Z,8.02
2023-04-18T03:12:24.568Z,7.68
2023-04-18T03:14:51.272Z,8.10
2023-04-18T03:17:18.364Z,7.18
2023-04-18T03:19:46.489Z,8.10
2023-04-18T03:22:14.041Z,8.35
2023-04-18T03:24:40.657Z,7.18
2023-04-18T03:27:07.396Z,8.90
2023-04-18T03:29:34.230Z,7.90
2023-04-18T03:32:00.906Z,8.00
2023-04-18T03:34:27.638Z,9.13
2023-04-18T03:36:54.348Z,8.13
2023-04-18T03:39:20.960Z,8.43
2023-04-18T03:41:47.562Z,8.10
2023-04-18T03:44:14.542Z,7.13
2023-04-18T03:46:41.601Z,8.00
2023-04-18T03:49:08.358Z,6.65
2023-04-18T03:51:43.654Z,8.10
2023-04-18T03:54:10.203Z,9.65
2023-04-18T03:56:36.848Z,7.25
2023-04-18T03:59:03.420Z,8.00
2023-04-18T04:01:30.094Z,7.90
2023-04-18T04:03:56.765Z,8.05
2023-04-18T04:06:23.444Z,7.28
2023-04-18T04:08:50.039Z,10.07
2023-04-18T04:11:17.634Z,8.60
2023-04-18T04:13:44.205Z,8.25
2023-04-18T04:16:10.840Z,8.20
2023-04-18T04:18:37.431Z,8.40
2023-04-18T04:21:05.304Z,8.38
2023-04-18T04:23:31.842Z,8.90
2023-04-18T04:25:59.314Z,9.15
2023-04-18T04:28:26.340Z,8.43
2023-04-18T04:30:53.306Z,9.02
2023-04-18T04:33:21.455Z,8.27
2023-04-18T04:35:48.234Z,8.25
2023-04-18T04:38:15.428Z,8.65
2023-04-18T04:40:42.613Z,9.30
2023-04-18T04:43:15.437Z,8.95
2023-04-18T04:45:43.186Z,9.27
2023-04-18T04:48:11.103Z,9.48
2023-04-18T04:50:38.926Z,8.90
2023-04-18T04:53:06.485Z,9.10
2023-04-18T04:55:33.742Z,8.90
2023-04-18T04:58:00.751Z,9.43
2023-04-18T05:00:28.849Z,8.02
2023-04-18T05:02:57.713Z,8.68
2023-04-18T05:05:24.515Z,7.82
2023-04-18T05:07:51.114Z,8.93
2023-04-18T05:10:17.793Z,8.45
2023-04-18T05:12:44.489Z,7.47
2023-04-18T05:15:11.337Z,6.47
2023-04-18T05:17:37.918Z,8.55
2023-04-18T05:20:05.729Z,8.77
2023-04-18T05:22:32.567Z,8.43
2023-04-18T05:24:59.121Z,7.97
2023-04-18T05:27:26.180Z,8.68
2023-04-18T05:29:52.980Z,8.93
2023-04-18T05:32:19.987Z,8.38
2023-04-18T05:34:46.997Z,9.02
2023-04-18T05:37:13.712Z,9.30
2023-04-18T05:39:40.934Z,8.27
2023-04-18T05:42:07.570Z,7.13
2023-04-18T05:44:34.144Z,8.85
2023-04-18T05:47:01.085Z,7.97
2023-04-18T05:49:27.723Z,9.18
2023-04-18T05:51:54.303Z,7.72
2023-04-18T05:54:21.890Z,8.23
2023-04-18T05:56:48.464Z,6.35
2023-04-18T05:59:15.228Z,7.88
2023-04-18T06:01:41.856Z,8.13
2023-04-18T06:04:08.828Z,8.18
2023-04-18T06:06:36.264Z,8.63
2023-04-18T06:09:03.030Z,8.13
2023-04-18T06:11:29.725Z,7.43
2023-04-18T06:13:56.249Z,6.57
2023-04-18T06:16:23.091Z,8.90
2023-04-18T06:18:49.651Z,8.25
2023-04-18T06:21:16.243Z,9.68
2023-04-18T06:23:42.816Z,7.78
2023-04-18T06:26:09.634Z,8.52
2023-04-18T06:28:36.185Z,9.05
2023-04-18T06:31:02.940Z,8.20
2023-04-18T06:33:29.503Z,8.68
2023-04-18T06:35:56.148Z,7.60
2023-04-18T06:38:22.946Z,8.80
2023-04-18T06:40:49.451Z,8.15
2023-04-18T06:43:16.118Z,9.02
2023-04-18T06:45:42.814Z,7.38
2023-04-18T06:48:10.803Z,7.60
2023-04-18T06:50:37.483Z,9.40
2023-04-18T06:53:04.029Z,7.80
2023-04-18T06:55:31.009Z,7.60
2023-04-18T06:57:57.595Z,8.32
2023-04-18T07:00:24.095Z,9.02
2023-04-18T07:02:50.870Z,8.45
2023-04-18T07:05:17.600Z,9.25
2023-04-18T07:07:44.201Z,9.15
2023-04-18T07:10:11.524Z,8.38
2023-04-18T07:12:38.298Z,10.07
2023-04-18T07:15:05.259Z,10.50
2023-04-18T07:17:31.977Z,8.68
2023-04-18T07:19:58.806Z,8.15
2023-04-18T07:22:26.401Z,9.07
2023-04-18T07:24:53.022Z,9.10
2023-04-18T07:27:19.574Z,8.10
2023-04-18T07:29:46.096Z,8.93
2023-04-18T07:32:13.848Z,8.98
2023-04-18T07:34:40.481Z,9.00
2023-04-18T07:37:07.763Z,8.98
2023-04-18T07:39:36.153Z,8.82
2023-04-18T07:42:07.764Z,8.30
2023-04-18T07:44:35.863Z,7.13
2023-04-18T07:47:02.799Z,8.73
2023-04-18T07:49:29.365Z,7.82
2023-04-18T07:51:56.052Z,8.48
2023-04-18T07:54:22.974Z,6.97
2023-04-18T07:56:49.518Z,7.70
2023-04-18T07:59:16.563Z,7.85
2023-04-18T08:01:43.380Z,8.75
2023-04-18T08:04:10.243Z,8.20
2023-04-18T08:06:36.936Z,8.80
2023-04-18T08:09:05.595Z,7.22
2023-04-18T08:11:33.327Z,7.65
2023-04-18T08:14:00.002Z,8.25
2023-04-18T08:16:26.879Z,8.00
2023-04-18T08:18:53.437Z,8.30
2023-04-18T08:21:20.399Z,7.70
2023-04-18T08:23:47.136Z,8.88
2023-04-18T08:26:15.122Z,8.55
2023-04-18T08:28:42.245Z,8.43
2023-04-18T08:31:12.875Z,8.35
2023-04-18T08:33:39.705Z,8.95
2023-04-18T08:36:07.980Z,8.18
2023-04-18T08:38:34.636Z,8.68
2023-04-18T08:41:03.651Z,8.85
2023-04-18T08:43:31.336Z,9.70
2023-04-18T08:45:59.490Z,10.45
2023-04-18T08:48:28.416Z,7.47
2023-04-18T08:50:59.557Z,7.90
2023-04-18T08:53:27.129Z,8.82
2023-04-18T08:55:56.794Z,7.90
2023-04-18T08:58:24.452Z,7.53
2023-04-18T09:00:54.147Z,7.00
2023-04-18T09:03:39.760Z,7.53
2023-04-18T09:06:10.636Z,6.05
2023-04-18T09:08:37.194Z,7.60
2023-04-18T09:11:26.245Z,8.48
2023-04-18T09:13:53.354Z,8.45
2023-04-18T09:16:22.486Z,8.05
2023-04-18T09:19:11.189Z,6.13
2023-04-18T09:21:41.289Z,6.95
2023-04-18T09:24:20.751Z,6.65
2023-04-18T09:26:50.045Z,7.30
2023-04-18T09:29:18.643Z,7.53
2023-04-18T09:32:01.997Z,6.68
2023-04-18T09:34:29.180Z,6.32
2023-04-18T09:37:13.698Z,6.60
2023-04-18T09:39:45.034Z,7.07
2023-04-18T09:42:12.613Z,6.30
2023-04-18T09:44:58.725Z,7.30
2023-04-18T09:47:27.886Z,7.32
2023-04-18T09:49:54.579Z,6.80
2023-04-18T09:52:26.513Z,5.93
2023-04-18T09:54:58.645Z,5.82
2023-04-18T09:57:29.900Z,5.93
2023-04-18T10:00:13.959Z,7.40
2023-04-18T10:02:48.571Z,6.00
2023-04-18T10:05:15.812Z,6.68
2023-04-18T10:07:45.168Z,6.45
2023-04-18T10:10:12.448Z,4.85
2023-04-18T10:12:41.125Z,5.82
2023-04-18T10:15:09.851Z,6.22
2023-04-18T10:18:04.193Z,6.93
2023-04-18T10:20:33.148Z,5.40
2023-04-18T10:23:00.008Z,6.60
2023-04-18T10:28:10.061Z,5.40
2023-04-18T10:38:46.192Z,5.50
2023-04-18T10:44:14.625Z,6.65
2023-04-18T10:49:26.388Z,4.80
2023-04-18T10:51:58.742Z,4.30
2023-04-18T10:54:51.992Z,6.25
2023-04-18T10:57:18.531Z,4.93
2023-04-18T10:59:49.304Z,5.00
2023-04-18T11:02:25.828Z,5.55
2023-04-18T11:04:54.912Z,4.72
2023-04-18T11:07:43.213Z,6.05
2023-04-18T11:10:09.978Z,4.68
2023-04-18T11:12:38.906Z,4.63
2023-04-18T11:15:21.929Z,5.38
2023-04-18T11:20:49.043Z,5.32
2023-04-18T11:23:18.250Z,5.30
2023-04-18T11:25:45.466Z,4.97
2023-04-18T11:28:13.897Z,4.63
2023-04-18T11:30:42.152Z,5.40
2023-04-18T11:33:11.295Z,5.35
2023-04-18T11:35:39.699Z,5.50
2023-04-18T11:38:09.674Z,6.10
2023-04-18T11:40:37.336Z,5.32
2023-04-18T11:43:06.173Z,5.30
2023-04-18T11:45:33.189Z,4.97
2023-04-18T11:48:00.990Z,5.60
2023-04-18T11:50:27.787Z,5.05
2023-04-18T11:52:56.574Z,5.07
2023-04-18T11:55:25.461Z,5.05
2023-04-18T11:57:55.263Z,4.80
2023-04-18T12:00:39.793Z,5.38
2023-04-18T12:03:15.675Z,5.43
2023-04-18T12:05:43.128Z,5.85
2023-04-18T12:10:48.373Z,5.65
2023-04-18T12:13:15.180Z,5.18
2023-04-18T12:15:44.643Z,7.30
2023-04-18T12:18:14.152Z,5.40
2023-04-18T12:23:40.083Z,6.50
2023-04-18T12:28:35.245Z,5.82
2023-04-18T12:31:02.241Z,6.53
2023-04-18T12:33:28.895Z,6.80
2023-04-18T12:35:56.090Z,5.45
2023-04-18T12:38:24.086Z,5.57
2023-04-18T12:40:52.384Z,6.38
2023-04-18T12:43:19.515Z,6.82
2023-04-18T12:45:47.095Z,7.40
2023-04-18T12:48:14.011Z,6.50
2023-04-18T12:50:40.780Z,7.15
2023-04-18T12:53:07.412Z,6.95
2023-04-18T12:55:34.163Z,6.15
2023-04-18T12:58:00.887Z,6.85
2023-04-18T13:00:31.299Z,5.85
2023-04-18T13:02:58.804Z,6.55
2023-04-18T13:05:29.883Z,6.57
2023-04-18T13:08:15.436Z,6.07
2023-04-18T13:10:43.429Z,5.32
2023-04-18T13:13:10.842Z,6.80
2023-04-18T13:15:38.541Z,6.47
2023-04-18T13:18:06.715Z,6.18
2023-04-18T13:20:34.437Z,6.38
2023-04-18T13:23:02.788Z,6.05
2023-04-18T13:25:29.447Z,5.93
2023-04-18T13:27:57.495Z,5.40
2023-04-18T13:30:24.117Z,6.00
2023-04-18T13:32:50.840Z,5.68
2023-04-18T13:35:18.565Z,6.90
2023-04-18T13:37:46.133Z,4.97
2023-04-18T13:40:13.042Z,5.68
2023-04-18T13:42:39.587Z,5.38
2023-04-18T13:45:07.337Z,4.57
2023-04-18T13:47:34.473Z,5.80
2023-04-18T13:50:01.172Z,5.68
2023-04-18T13:52:27.852Z,4.90
2023-04-18T13:54:55.956Z,5.47
2023-04-18T13:57:23.210Z,5.72
2023-04-18T13:59:49.945Z,6.20
2023-04-18T14:02:16.740Z,6.63
2023-04-18T14:04:43.548Z,5.55
2023-04-18T14:07:10.743Z,5.80
2023-04-18T14:09:37.361Z,5.00
2023-04-18T14:12:04.202Z,5.30
2023-04-18T14:14:30.837Z,3.67
2023-04-18T14:16:57.479Z,5.63
2023-04-18T14:19:24.094Z,5.10
2023-04-18T14:21:50.887Z,6.03
2023-04-18T14:24:17.646Z,6.53
2023-04-18T14:26:44.191Z,4.85
2023-04-18T14:29:11.185Z,5.47
2023-04-18T14:31:38.140Z,5.88
2023-04-18T14:34:05.660Z,6.35
2023-04-18T14:36:32.753Z,5.22
2023-04-18T14:38:59.443Z,5.82
2023-04-18T14:41:26.255Z,6.10
2023-04-18T14:43:52.951Z,4.80
2023-04-18T14:46:21.228Z,5.43
2023-04-18T14:48:47.943Z,4.95
2023-04-18T14:51:16.205Z,5.47
2023-04-18T14:53:43.014Z,5.57
2023-04-18T14:56:09.879Z,4.40
2023-04-18T14:58:36.481Z,5.53
2023-04-18T15:01:04.999Z,4.20
2023-04-18T15:03:32.029Z,5.13
2023-04-18T15:05:59.488Z,5.38
2023-04-18T15:08:26.133Z,4.05
2023-04-18T15:10:52.678Z,4.55
2023-04-18T15:13:19.517Z,5.63
2023-04-18T15:15:54.899Z,4.53
2023-04-18T15:18:22.093Z,4.88
2023-04-18T15:20:48.817Z,6.00
2023-04-18T15:23:15.666Z,5.35
2023-04-18T15:25:44.283Z,5.40
2023-04-18T15:28:13.283Z,5.10
2023-04-18T15:30:40.059Z,5.20
2023-04-18T15:33:06.710Z,5.38
2023-04-18T15:35:33.277Z,5.55
2023-04-18T15:37:59.851Z,4.47
2023-04-18T15:40:26.425Z,4.00
2023-04-18T15:42:54.309Z,4.72
2023-04-18T15:45:21.424Z,4.22
2023-04-18T15:47:48.373Z,4.07
2023-04-18T15:50:16.278Z,5.15
2023-04-18T15:52:43.429Z,5.88
2023-04-18T15:55:13.214Z,3.85
2023-04-18T16:00:12.123Z,4.68
2023-04-18T16:02:38.914Z,4.20
2023-04-18T16:05:05.966Z,5.13
2023-04-18T16:07:32.504Z,5.40
2023-04-18T16:09:59.142Z,4.70
2023-04-18T16:12:25.756Z,3.53
2023-04-18T16:14:52.299Z,4.60
2023-04-18T16:17:18.837Z,4.30
2023-04-18T16:19:45.544Z,4.72
2023-04-18T16:22:12.488Z,4.63
2023-04-18T16:24:40.447Z,4.72
2023-04-18T16:27:08.697Z,5.22
2023-04-18T16:29:35.480Z,3.88
2023-04-18T16:32:02.119Z,4.50
2023-04-18T16:34:28.703Z,4.53
2023-04-18T16:36:55.723Z,5.22
2023-04-18T16:39:22.398Z,3.95
2023-04-18T16:41:48.971Z,5.07
2023-04-18T16:44:15.902Z,5.10
2023-04-18T16:46:42.917Z,4.90
2023-04-18T16:49:09.558Z,4.10
2023-04-18T16:51:37.394Z,4.80
2023-04-18T16:54:04.838Z,4.53
2023-04-18T16:56:31.563Z,4.93
2023-04-18T16:58:58.814Z,4.78
2023-04-18T17:01:25.602Z,3.78
2023-04-18T17:03:52.308Z,4.55
2023-04-18T17:06:19.491Z,4.20
2023-04-18T17:08:46.248Z,3.75
2023-04-18T17:11:12.815Z,5.35
2023-04-18T17:13:39.363Z,4.78
2023-04-18T17:16:07.622Z,4.40
2023-04-18T17:18:34.217Z,4.43
2023-04-18T17:21:00.862Z,4.97
2023-04-18T17:23:27.569Z,4.57
2023-04-18T17:25:54.126Z,5.28
2023-04-18T17:28:21.359Z,5.25
2023-04-18T17:30:48.015Z,4.13
2023-04-18T17:33:14.568Z,5.03
2023-04-18T17:35:41.665Z,4.18
2023-04-18T17:38:10.636Z,5.45
2023-04-18T17:40:37.330Z,5.90
2023-04-18T17:43:03.859Z,6.05
2023-04-18T17:45:30.491Z,6.53
2023-04-18T17:47:58.297Z,5.15
2023-04-18T17:50:25.110Z,5.45
2023-04-18T17:52:51.803Z,4.28
2023-04-18T17:55:18.482Z,6.50
2023-04-18T17:57:45.309Z,4.72
2023-04-18T18:00:13.803Z,5.13
2023-04-18T18:02:42.427Z,6.00
2023-04-18T18:05:13.460Z,4.88
2023-04-18T18:07:42.969Z,5.32
2023-04-18T18:10:10.456Z,5.43
2023-04-18T18:12:38.149Z,5.38
2023-04-18T18:15:05.376Z,4.32
2023-04-18T18:17:31.947Z,5.57
2023-04-18T18:19:58.577Z,6.82
2023-04-18T18:22:26.155Z,8.05
2023-04-18T18:24:52.972Z,5.45
2023-04-18T18:27:20.364Z,6.07
2023-04-18T18:29:48.094Z,5.30
2023-04-18T18:32:14.722Z,5.63
2023-04-18T18:34:41.324Z,6.25
2023-04-18T18:37:07.917Z,4.70
2023-04-18T18:39:34.511Z,5.63
2023-04-18T18:42:01.705Z,5.32
2023-04-18T18:44:28.464Z,5.15
2023-04-18T18:46:56.497Z,6.28
2023-04-18T18:49:23.102Z,5.93
2023-04-18T18:51:49.615Z,4.70
2023-04-18T18:54:16.302Z,5.70
2023-04-18T18:56:44.224Z,5.05
2023-04-18T18:59:11.458Z,4.60
2023-04-18T19:01:38.078Z,6.35
2023-04-18T19:04:05.252Z,5.95
2023-04-18T19:06:32.193Z,5.70
2023-04-18T19:08:59.109Z,5.20
2023-04-18T19:11:26.789Z,5.93
2023-04-18T19:13:53.952Z,5.90
2023-04-18T19:16:20.583Z,6.88
2023-04-18T19:18:49.155Z,6.03
2023-04-18T19:21:16.468Z,5.93
2023-04-18T19:23:43.278Z,6.20
2023-04-18T19:26:10.282Z,5.10
2023-04-18T19:28:36.880Z,5.18
2023-04-18T19:31:03.740Z,5.78
2023-04-18T19:33:30.366Z,4.75
2023-04-18T19:35:56.936Z,4.85
2023-04-18T19:38:23.555Z,6.70
2023-04-18T19:40:50.137Z,5.03
2023-04-18T19:43:16.677Z,6.03
2023-04-18T19:45:43.357Z,5.90
2023-04-18T19:48:09.956Z,6.43
2023-04-18T19:50:39.432Z,5.00
2023-04-18T19:53:06.260Z,6.10
2023-04-18T19:55:32.801Z,4.82
2023-04-18T19:57:59.989Z,5.50
2023-04-18T20:00:27.000Z,5.75
2023-04-18T20:02:54.438Z,5.30
2023-04-18T20:05:21.372Z,5.47
2023-04-18T20:07:48.232Z,4.82
2023-04-18T20:10:14.838Z,5.18
2023-04-18T20:12:41.464Z,4.93
2023-04-18T20:15:08.655Z,6.40
2023-04-18T20:17:35.488Z,5.80
2023-04-18T20:20:02.234Z,5.18
2023-04-18T20:22:28.786Z,5.97
2023-04-18T20:24:57.789Z,5.38
2023-04-18T20:27:24.464Z,5.03
2023-04-18T20:29:51.018Z,5.55
2023-04-18T20:32:17.601Z,5.05
2023-04-18T20:34:45.758Z,4.75
2023-04-18T20:37:15.483Z,5.40
2023-04-18T20:39:42.112Z,6.20
2023-04-18T20:42:14.184Z,5.75
2023-04-18T20:44:43.208Z,5.90
2023-04-18T20:47:09.805Z,7.07
2023-04-18T20:49:36.427Z,5.78
2023-04-18T20:52:03.061Z,6.00
2023-04-18T20:54:29.634Z,5.65
2023-04-18T20:56:56.204Z,5.85
2023-04-18T20:59:22.780Z,6.40
2023-04-18T21:01:49.384Z,6.63
2023-04-18T21:04:16.492Z,6.78
2023-04-18T21:06:43.227Z,5.85
2023-04-18T21:09:09.781Z,5.68
2023-04-18T21:11:36.338Z,6.90
2023-04-18T21:14:05.736Z,6.43
2023-04-18T21:16:32.738Z,5.28
2023-04-18T21:18:59.532Z,4.35
2023-04-18T21:21:26.094Z,6.32
2023-04-18T21:23:52.658Z,7.50
2023-04-18T21:26:19.210Z,6.75
2023-04-18T21:28:56.292Z,6.20
2023-04-18T21:31:23.446Z,6.15
2023-04-18T21:33:54.133Z,5.57
2023-04-18T21:36:20.998Z,6.53
2023-04-18T21:38:47.691Z,6.60
2023-04-18T21:41:16.168Z,6.43
2023-04-18T21:43:43.454Z,6.57
2023-04-18T21:46:11.884Z,6.47
2023-04-18T21:48:41.045Z,6.35
2023-04-18T21:51:09.690Z,6.13
2023-04-18T21:53:37.699Z,7.13
2023-04-18T21:56:04.955Z,7.60
2023-04-18T21:58:31.924Z,7.75
2023-04-18T22:00:58.555Z,7.35
2023-04-18T22:03:27.586Z,7.38
2023-04-18T22:05:56.607Z,9.93
2023-04-18T22:08:25.864Z,7.00
2023-04-18T22:10:56.055Z,5.53
2023-04-18T22:15:49.944Z,6.32
2023-04-18T22:18:16.526Z,8.20
2023-04-18T22:20:43.326Z,8.00
2023-04-18T22:23:10.707Z,7.68
2023-04-18T22:25:37.469Z,7.38
2023-04-18T22:28:04.704Z,7.57
2023-04-18T22:30:31.999Z,7.40
2023-04-18T22:32:59.328Z,8.07
2023-04-18T22:35:26.850Z,8.75
2023-04-18T22:37:53.492Z,6.78
2023-04-18T22:40:20.414Z,7.85
2023-04-18T22:42:47.001Z,7.00
2023-04-18T22:45:13.716Z,7.65
2023-04-18T22:47:40.579Z,6.75
2023-04-18T22:50:08.011Z,7.80
2023-04-18T22:52:34.699Z,6.28
2023-04-18T22:55:03.297Z,7.10
2023-04-18T22:57:29.904Z,7.00
2023-04-18T22:59:56.497Z,8.35
2023-04-18T23:02:23.309Z,5.95
2023-04-18T23:04:50.655Z,8.75
2023-04-18T23:07:17.359Z,7.60
2023-04-18T23:09:43.876Z,5.75
2023-04-18T23:12:10.464Z,7.40
2023-04-18T23:14:37.052Z,6.90
2023-04-18T23:17:03.700Z,6.68
2023-04-18T23:19:30.314Z,6.45
2023-04-18T23:21:56.898Z,6.50
2023-04-18T23:24:23.417Z,7.38
2023-04-18T23:26:49.972Z,7.32
2023-04-18T23:29:16.572Z,6.05
2023-04-18T23:31:43.430Z,7.38
2023-04-18T23:34:10.693Z,8.20
2023-04-18T23:36:37.409Z,7.53
2023-04-18T23:39:04.380Z,6.50
2023-04-18T23:41:30.993Z,6.40
2023-04-18T23:43:57.673Z,6.20
2023-04-18T23:46:24.295Z,6.03
2023-04-18T23:48:51.058Z,7.30
2023-04-18T23:51:17.877Z,8.25
2023-04-18T23:53:44.533Z,6.75
2023-04-18T23:56:11.047Z,7.18
2023-04-18T23:58:37.610Z,7.18
